Weather at Heliport turistic gallipoli

Public forecast

Using degrees Celsius for public forecast. Weather courtesy of forecast.io.

Closest aviation weather report (METAR) to Heliport turistic gallipoli

Closest report is Lecce Galatina Air Base, 13.9 nm (25.7 km) NNE. Retrieved 2021/10/24 13:55 UTC (1 hour ago):

LIBN 241355Z 01009KT 9999 FEW008 19/16 Q1021 RMK OVC BKN080 VIS MIN 9999 WIND THR14 02008KT WIND THR32 02010KT BLU

Closest aviation forecast (TAF) to Heliport turistic gallipoli

Forecast is more than 12 hours old.

Closest forecast is Lecce Galatina Air Base, 13.9 nm (25.7 km) NNE. Retrieved 2021/06/28 12:51 UTC (4 months ago):

TAF TAF LIBN 281100Z 2812/2824 VRB03KT CAVOK